Milwaukee, WI (53214)

8:47 PM CST on February 21, 2017 (GMT -0600)
Jans Embroidery | | Change Station

Elev 738 ft 43.00 °N, 88.00 °W | Updated 2 seconds ago

Mostly Cloudy
Mostly Cloudy
46.6 °F
Feels Like 47 °F
N
0.0
Wind Variable Wind from NNW
Gusts 0.0 mph

Today
High -- | Low -- °F
--% Chance of Precip.
Yesterday
High -- | Low -- °F
Precip. -- in
Pressure 29.87 in
Visibility 10.0 miles
Clouds Clear
Windchill 47 °F
Dew Point 42 °F
Humidity 83%
Rainfall 0.04 in
Snow Depth Not available.
6:40 AM 5:31 PM
Waning Crescent, 21% visible
METAR KMWC 220145Z 00000KT 10SM SKC 09/06 A2987
Pressure 29.87 in
Visibility 10.0 miles
Clouds Clear
Windchill 47 °F
Dew Point 42 °F
Humidity 83%
Rainfall 0.04 in
Snow Depth Not available.
6:40 AM 5:31 PM
Waning Crescent, 21% visible
METAR KMWC 220145Z 00000KT 10SM SKC 09/06 A2987

Get Your Daily Forecast Email!

Thanks for signing up!

Be on the lookout for a verification email in your inbox.

You'll start receiving the daily forecast at 8 AM.

×

10-Day Weather Forecast

Almanac

Astronomy

Feb. 21, 2017 Rise Set
Actual Time
Civil Twilight
Nautical Twilight
Astronomical Twilight
Moon
Length of Visible Light
Length of Day
Tomorrow will be .
, % of the Moon is Illuminated

Today's Extremes

State Highs State Lows

Community

WunderPhotos

Upload Photos

1,962,540 photos uploaded!

WunderBlog® & News

Nearby

Air Quality

  Air Quality AQ Index Pollutant
Not available.

Snow Depth

Station Depth Elevation

Earthquake Activity

City Distance Mag. Time & Date
Minimum magnitude displayed is 2.5.

Coastal Water Temperatures

Place Temperature

Stations

Nearby Weather Stations

Station Location Temp. Windchill Dew Point Humidity Wind Precip. Elev Updated Type
                   

Watches & Warnings

Dense Fog Advisory
Issued: 7:28 PM CST Feb. 21, 2017 – National Weather Service

... Dense fog advisory in effect until 9 am CST Wednesday...

The National Weather Service in Milwaukee/Sullivan has issued a
dense fog advisory... which is in effect until 9 am CST Wednesday.

* Timing... through mid morning on Wednesday.

* Visibility... less than 1/4 mile, especially near the lake.

* Impacts... visibilities will change rapidly over short
distances, especially close to Lake Michigan. This can be very
dangerous for motorists unprepared for these conditions.

Precautionary/preparedness actions...

A dense fog advisory means visibilities will frequently be
reduced to less than one quarter mile. If driving... slow down...
use your headlights... and leave plenty of distance ahead of you.




Hydrologic Statement
Issued: 2:32 PM CST Feb. 21, 2017 – National Weather Service

Forecast information for
root river at Franklin.
* At 1:00 PM Tuesday the stage was 2.3 feet.
* Flood stage is 8.0 feet.
* Impact... at 7.0 feet... there is minor flooding to agricultural land
in southern Milwaukee County.